createdAt,value
2018-11-14T00:06:58.543Z,22.1
2018-11-14T00:16:57.753Z,22.1
2018-11-14T00:26:56.965Z,22.1
2018-11-14T00:36:56.334Z,22.1
2018-11-14T00:46:55.380Z,22.1
2018-11-14T00:56:54.594Z,22
2018-11-14T01:06:53.800Z,22
2018-11-14T01:16:53.009Z,22
2018-11-14T01:26:52.263Z,22
2018-11-14T01:36:51.427Z,22.1
2018-11-14T01:46:50.643Z,22.1
2018-11-14T01:56:49.853Z,22
2018-11-14T02:06:49.053Z,21.9
2018-11-14T02:16:48.262Z,22.1
2018-11-14T02:26:47.470Z,22
2018-11-14T02:36:46.689Z,22
2018-11-14T02:46:45.893Z,22
2018-11-14T02:56:45.105Z,21.9
2018-11-14T03:06:44.306Z,21.9
2018-11-14T03:16:43.520Z,21.9
2018-11-14T03:26:42.730Z,21.9
2018-11-14T03:36:41.937Z,21.9
2018-11-14T03:46:41.147Z,21.9
2018-11-14T03:56:40.348Z,21.9
2018-11-14T04:06:39.561Z,22
2018-11-14T04:16:38.771Z,21.9
2018-11-14T04:26:37.980Z,21.9
2018-11-14T04:36:37.233Z,21.9
2018-11-14T04:46:36.397Z,21.8
2018-11-14T04:56:35.600Z,21.9
2018-11-14T05:06:34.813Z,21.9
2018-11-14T05:16:34.026Z,21.8
2018-11-14T05:26:33.233Z,21.8
2018-11-14T05:36:32.448Z,21.8
2018-11-14T05:46:31.659Z,21.8
2018-11-14T05:56:30.872Z,21.8
2018-11-14T06:06:30.080Z,21.8
2018-11-14T06:16:29.287Z,21.8
2018-11-14T06:26:28.502Z,21.9
2018-11-14T06:36:27.707Z,22.1
2018-11-14T06:46:26.917Z,22.2
2018-11-14T06:56:26.136Z,22.3
2018-11-14T07:06:25.338Z,22.4
2018-11-14T07:16:24.547Z,22.4
2018-11-14T07:26:23.760Z,22.4
2018-11-14T07:36:22.975Z,22.5
2018-11-14T07:46:22.183Z,22.5
2018-11-14T07:56:21.383Z,22.4
2018-11-14T08:06:20.594Z,22.4
2018-11-14T08:16:19.803Z,22.3
2018-11-14T08:26:19.017Z,22.3
2018-11-14T08:36:18.225Z,22.3
2018-11-14T08:46:17.433Z,22.2
2018-11-14T08:56:16.643Z,22.2
2018-11-14T09:06:15.892Z,22.1
2018-11-14T09:16:15.061Z,22.1
2018-11-14T09:26:14.275Z,22.1
2018-11-14T09:36:13.480Z,22.1
2018-11-14T09:46:12.689Z,22.1
2018-11-14T09:56:11.897Z,22.1
2018-11-14T10:06:11.105Z,22
2018-11-14T10:16:10.316Z,22
2018-11-14T10:26:09.524Z,22
2018-11-14T10:36:08.734Z,22
2018-11-14T10:46:07.935Z,22
2018-11-14T10:56:07.147Z,22
2018-11-14T11:06:06.353Z,21.9
2018-11-14T11:16:05.563Z,21.9
2018-11-14T11:26:04.767Z,21.9
2018-11-14T11:36:03.982Z,21.9
2018-11-14T11:46:03.186Z,21.9
2018-11-14T11:56:02.390Z,21.9
2018-11-14T12:06:01.792Z,21.9
2018-11-14T12:16:00.810Z,21.9
2018-11-14T12:26:00.019Z,21.8
2018-11-14T12:35:59.226Z,21.9
2018-11-14T12:45:58.430Z,21.9
2018-11-14T12:55:57.643Z,21.8
2018-11-14T13:05:56.852Z,21.8
2018-11-14T13:15:56.059Z,21.8
2018-11-14T13:25:55.268Z,21.8
2018-11-14T13:35:54.478Z,21.7
2018-11-14T13:45:53.690Z,21.7
2018-11-14T13:55:52.896Z,21.8
2018-11-14T14:05:52.104Z,22.1
2018-11-14T14:15:51.313Z,22.1
2018-11-14T14:25:50.526Z,22.1
2018-11-14T14:35:49.730Z,21.9
2018-11-14T14:45:48.986Z,21.9
2018-11-14T14:55:48.145Z,21.9
2018-11-14T15:05:47.359Z,21.9
2018-11-14T15:15:46.628Z,21.9
2018-11-14T15:25:45.774Z,21.9
2018-11-14T15:35:45.028Z,21.9
2018-11-14T15:45:44.205Z,21.9
2018-11-14T15:55:43.403Z,21.9
2018-11-14T16:05:42.683Z,22
2018-11-14T16:15:41.821Z,22
2018-11-14T16:25:41.029Z,21.9
2018-11-14T16:35:40.238Z,22
2018-11-14T16:45:39.451Z,22
2018-11-14T16:55:38.710Z,21.9
2018-11-14T17:05:37.871Z,22
2018-11-14T17:15:37.082Z,22
2018-11-14T17:25:36.326Z,22.1
2018-11-14T17:35:35.491Z,22.1
2018-11-14T17:45:34.703Z,22
2018-11-14T17:55:34.017Z,22
2018-11-14T18:05:33.125Z,22
2018-11-14T18:15:32.332Z,21.9
2018-11-14T18:25:31.550Z,21.9
2018-11-14T18:35:30.747Z,22.1
2018-11-14T18:45:30.003Z,22.3
2018-11-14T18:55:29.172Z,22.5
2018-11-14T19:05:28.372Z,22.7
2018-11-14T19:15:27.636Z,22.8
2018-11-14T19:25:26.789Z,22.9
2018-11-14T19:35:25.999Z,22.9
2018-11-14T19:45:25.218Z,22.6
2018-11-14T19:55:24.562Z,22.5
2018-11-14T20:05:23.627Z,22.4
2018-11-14T20:15:22.890Z,22.3
2018-11-14T20:25:22.045Z,22.5
2018-11-14T20:35:21.248Z,22.8
2018-11-14T20:45:20.461Z,22.9
2018-11-14T20:55:19.669Z,22.8
2018-11-14T21:05:18.873Z,22.9
2018-11-14T21:15:18.165Z,22.9
2018-11-14T21:25:17.301Z,22.9
2018-11-14T21:35:16.506Z,22.8
2018-11-14T21:45:15.709Z,22.8
2018-11-14T21:55:14.918Z,22.7
2018-11-14T22:05:14.178Z,22.8
2018-11-14T22:15:13.341Z,22.7
2018-11-14T22:25:12.548Z,22.8
2018-11-14T22:35:11.887Z,22.8
2018-11-14T22:45:10.960Z,22.8
2018-11-14T22:55:10.223Z,22.6
2018-11-14T23:05:09.382Z,22.5
2018-11-14T23:15:08.585Z,22.4
2018-11-14T23:25:07.802Z,22.4
2018-11-14T23:35:07.005Z,22.3
2018-11-14T23:45:06.265Z,22.3
2018-11-14T23:55:05.523Z,22.3
